Time;durP1;ratioP1;P1;durP2;ratioP2;P2;SDS_P1;SDS_P2;PMS_P1;PMS_P2;Temp;Humidity;BMP_temperature;BMP_pressure;BME280_temperature;BME280_humidity;BME280_pressure;Samples;Min_cycle;Max_cycle;Signal;HPM_P1;HPM_P2
2023/07/03 00:00:11;;;;;;;2.65;1.27;;;19.90;59.70;;;;;;5036878;28;20172;-85
2023/07/03 00:02:41;;;;;;;1.38;1.27;;;19.90;59.70;;;;;;5022584;28;20025;-85
2023/07/03 00:05:08;;;;;;;3.90;1.38;;;19.90;59.90;;;;;;5006297;28;20176;-84
2023/07/03 00:07:35;;;;;;;1.75;1.10;;;19.90;59.90;;;;;;5009343;28;20036;-86
2023/07/03 00:10:00;;;;;;;1.27;1.17;;;19.90;59.90;;;;;;5011455;28;20022;-88
2023/07/03 00:12:26;;;;;;;4.13;1.33;;;19.80;59.90;;;;;;5014705;28;20030;-88
2023/07/03 00:14:52;;;;;;;5.40;1.83;;;19.80;59.90;;;;;;5023170;28;20510;-88
2023/07/03 00:17:18;;;;;;;6.15;1.90;;;19.70;59.80;;;;;;5020871;28;20039;-86
2023/07/03 00:19:43;;;;;;;3.40;1.33;;;19.70;60.00;;;;;;5021219;28;20045;-85
2023/07/03 00:22:09;;;;;;;2.95;1.38;;;19.70;60.00;;;;;;5008911;28;20026;-85
2023/07/03 00:24:35;;;;;;;2.75;1.30;;;19.70;60.00;;;;;;5024721;28;20041;-85
2023/07/03 00:27:00;;;;;;;6.32;1.30;;;19.80;59.90;;;;;;5015031;28;20032;-87
2023/07/03 00:29:30;;;;;;;2.58;1.52;;;19.80;59.90;;;;;;5044041;28;20040;-86
2023/07/03 00:31:55;;;;;;;1.45;0.95;;;19.80;59.90;;;;;;5042828;28;20032;-85
2023/07/03 00:34:21;;;;;;;5.00;1.83;;;19.70;59.80;;;;;;5013734;28;20480;-85
2023/07/03 00:36:47;;;;;;;5.78;2.08;;;19.70;59.50;;;;;;5017861;28;20045;-86
2023/07/03 00:39:14;;;;;;;2.75;1.42;;;19.60;59.50;;;;;;5027077;28;20436;-86
2023/07/03 00:41:41;;;;;;;1.95;1.10;;;19.50;59.70;;;;;;5032323;28;20699;-86
2023/07/03 00:44:12;;;;;;;1.50;1.15;;;19.50;59.70;;;;;;5031495;28;20030;-85
2023/07/03 00:46:40;;;;;;;3.80;1.73;;;19.50;59.70;;;;;;5037984;28;20033;-87
2023/07/03 00:49:07;;;;;;;6.32;1.13;;;19.50;59.70;;;;;;5036670;28;20448;-85
2023/07/03 00:51:33;;;;;;;4.88;1.98;;;19.50;59.70;;;;;;5016727;28;20075;-87
2023/07/03 00:53:58;;;;;;;3.28;1.40;;;19.50;59.70;;;;;;5031755;28;20436;-85
2023/07/03 00:56:24;;;;;;;5.50;1.45;;;19.50;59.70;;;;;;5016945;28;20404;-86
2023/07/03 00:58:50;;;;;;;2.10;1.00;;;19.40;59.70;;;;;;5045732;28;20034;-89
2023/07/03 01:01:27;;;;;;;4.55;1.88;;;19.40;59.60;;;;;;5015008;28;20034;-86
2023/07/03 01:04:00;;;;;;;1.85;1.08;;;19.50;59.70;;;;;;5040524;28;20036;-85
2023/07/03 01:06:35;;;;;;;7.75;2.08;;;19.40;59.60;;;;;;5024260;28;20152;-86
2023/07/03 01:09:02;;;;;;;2.90;0.73;;;19.30;59.80;;;;;;5029764;28;20039;-85
2023/07/03 01:11:29;;;;;;;5.57;1.23;;;19.30;59.80;;;;;;5028670;28;20033;-86
2023/07/03 01:13:58;;;;;;;10.98;1.23;;;19.30;59.70;;;;;;5028785;28;20380;-86
2023/07/03 01:16:24;;;;;;;4.00;1.90;;;19.30;59.60;;;;;;5043195;28;20131;-85
2023/07/03 01:18:53;;;;;;;3.88;1.45;;;19.30;59.60;;;;;;5022376;28;20025;-86
2023/07/03 01:21:58;;;;;;;8.25;2.03;;;19.30;59.70;;;;;;5047250;28;20091;-85
2023/07/03 01:24:37;;;;;;;3.75;1.38;;;19.20;59.40;;;;;;5011493;28;20076;-88
2023/07/03 01:27:06;;;;;;;3.55;1.50;;;19.10;59.60;;;;;;5041860;28;20045;-88
2023/07/03 01:29:33;;;;;;;2.13;1.10;;;19.00;59.60;;;;;;5026194;28;20474;-88
2023/07/03 01:32:02;;;;;;;3.35;1.45;;;19.00;59.60;;;;;;5031851;28;20109;-88
2023/07/03 01:34:28;;;;;;;6.85;1.88;;;19.00;59.70;;;;;;5030606;28;20439;-85
2023/07/03 01:36:57;;;;;;;2.55;0.80;;;18.90;59.80;;;;;;5020081;28;20050;-85
2023/07/03 01:39:23;;;;;;;5.47;1.63;;;18.90;59.90;;;;;;5034587;28;20060;-85
2023/07/03 01:41:49;;;;;;;7.88;1.65;;;18.90;60.00;;;;;;5017651;28;20409;-86
2023/07/03 01:44:54;;;;;;;2.08;1.05;;;18.90;59.90;;;;;;5025598;28;20060;-88
2023/07/03 01:47:20;;;;;;;3.92;1.77;;;18.90;59.90;;;;;;5022523;28;20026;-85
2023/07/03 01:49:48;;;;;;;2.35;0.90;;;18.90;60.00;;;;;;5027128;28;20036;-86
2023/07/03 01:52:20;;;;;;;3.13;1.30;;;18.90;59.90;;;;;;5036220;28;20040;-84
2023/07/03 01:54:54;;;;;;;2.53;1.35;;;18.90;59.80;;;;;;5023618;28;20472;-85
2023/07/03 01:57:41;;;;;;;8.60;1.70;;;18.90;59.90;;;;;;5039050;28;20484;-85
2023/07/03 02:00:12;;;;;;;1.73;0.90;;;18.90;60.00;;;;;;5030194;28;20017;-85
2023/07/03 02:02:42;;;;;;;3.72;1.80;;;18.80;60.10;;;;;;5040441;28;20112;-88
2023/07/03 02:05:13;;;;;;;3.85;1.20;;;18.70;60.30;;;;;;5044150;28;20555;-88
2023/07/03 02:07:41;;;;;;;2.13;1.33;;;18.70;60.40;;;;;;5038312;28;20083;-87
2023/07/03 02:10:07;;;;;;;5.65;2.30;;;18.80;60.40;;;;;;5044598;28;20128;-89
2023/07/03 02:12:33;;;;;;;1.75;1.20;;;18.80;60.40;;;;;;5026671;28;20117;-87
2023/07/03 02:15:03;;;;;;;2.15;1.20;;;18.80;60.40;;;;;;5017113;28;20184;-87
2023/07/03 02:17:29;;;;;;;6.95;2.28;;;18.70;60.40;;;;;;5025453;28;20088;-88
2023/07/03 02:19:55;;;;;;;3.55;1.17;;;18.60;60.60;;;;;;5025003;28;20534;-89
2023/07/03 02:22:21;;;;;;;3.33;1.65;;;18.60;60.80;;;;;;5030779;28;20029;-88
2023/07/03 02:24:47;;;;;;;2.15;1.48;;;18.60;60.90;;;;;;5015695;28;20048;-88
2023/07/03 02:27:12;;;;;;;4.60;1.27;;;18.70;60.90;;;;;;5027267;28;20503;-88
2023/07/03 02:29:38;;;;;;;3.58;1.35;;;18.70;60.90;;;;;;5015661;28;20115;-89
2023/07/03 02:32:09;;;;;;;2.25;1.10;;;18.70;61.00;;;;;;5009423;28;20045;-88
2023/07/03 02:34:35;;;;;;;3.90;1.70;;;18.70;61.00;;;;;;5029434;28;20383;-89
2023/07/03 02:37:01;;;;;;;4.45;1.52;;;18.70;61.10;;;;;;5033204;28;20089;-89
2023/07/03 02:39:26;;;;;;;2.80;1.77;;;18.70;61.20;;;;;;5017408;28;20088;-87
2023/07/03 02:41:52;;;;;;;6.88;2.13;;;18.60;61.20;;;;;;5011847;28;20030;-85
2023/07/03 02:44:18;;;;;;;5.15;1.35;;;18.60;61.30;;;;;;5014308;28;20035;-85
2023/07/03 02:46:43;;;;;;;6.45;2.00;;;18.60;61.50;;;;;;5027841;28;20064;-85
2023/07/03 02:49:09;;;;;;;5.97;1.92;;;18.50;61.80;;;;;;5014622;28;20025;-88
2023/07/03 02:51:35;;;;;;;2.50;1.50;;;18.40;62.00;;;;;;5013978;28;20396;-89
2023/07/03 02:54:02;;;;;;;1.52;1.10;;;18.50;62.10;;;;;;5028870;28;20081;-89
2023/07/03 02:56:28;;;;;;;5.22;1.90;;;18.50;62.00;;;;;;5021779;28;20136;-89
2023/07/03 02:58:53;;;;;;;3.95;1.33;;;18.50;62.00;;;;;;5023817;28;20037;-88
2023/07/03 03:01:19;;;;;;;6.28;1.60;;;18.60;62.20;;;;;;5032215;28;20025;-87
2023/07/03 03:03:46;;;;;;;2.58;1.60;;;18.50;62.40;;;;;;5027855;28;20025;-88
2023/07/03 03:06:11;;;;;;;10.15;1.92;;;18.50;62.40;;;;;;5027143;28;20029;-88
2023/07/03 03:08:37;;;;;;;3.33;1.02;;;18.50;63.00;;;;;;5026103;28;20084;-90
2023/07/03 03:11:03;;;;;;;1.58;1.45;;;18.50;62.60;;;;;;5030389;28;20033;-90
2023/07/03 03:13:29;;;;;;;4.45;1.67;;;18.50;62.60;;;;;;5026383;28;20372;-90
2023/07/03 03:15:54;;;;;;;3.92;1.30;;;18.50;62.70;;;;;;5017276;28;20036;-89
2023/07/03 03:18:58;;;;;;;3.22;1.13;;;18.50;62.80;;;;;;5035229;28;20377;-91
2023/07/03 03:21:43;;;;;;;13.05;3.08;;;18.50;63.00;;;;;;5025975;28;20034;-88
2023/07/03 03:24:09;;;;;;;7.13;1.65;;;18.50;63.80;;;;;;5026511;28;20029;-88
2023/07/03 03:26:35;;;;;;;6.72;2.20;;;18.40;64.00;;;;;;5017047;28;20044;-89
2023/07/03 03:29:01;;;;;;;6.57;1.83;;;18.30;64.40;;;;;;5033056;28;20069;-89
2023/07/03 03:31:27;;;;;;;2.55;1.40;;;18.30;64.70;;;;;;5044401;28;20057;-89
2023/07/03 03:33:52;;;;;;;7.22;1.77;;;18.30;65.00;;;;;;5024751;28;20034;-88
2023/07/03 03:36:18;;;;;;;6.30;2.22;;;18.40;65.10;;;;;;5011553;28;20136;-88
2023/07/03 03:38:44;;;;;;;2.88;1.48;;;18.30;65.40;;;;;;5023806;28;20508;-89
2023/07/03 03:41:09;;;;;;;3.58;1.40;;;18.30;65.70;;;;;;5026005;28;20518;-89
2023/07/03 03:43:35;;;;;;;3.08;1.92;;;18.30;65.60;;;;;;5011892;28;20048;-89
2023/07/03 03:46:20;;;;;;;6.18;1.70;;;18.40;65.90;;;;;;5027614;28;20030;-89
2023/07/03 03:48:45;;;;;;;4.22;1.40;;;18.40;66.30;;;;;;5023012;28;20040;-88
2023/07/03 03:51:11;;;;;;;4.97;1.60;;;18.30;66.60;;;;;;5012413;28;20484;-85
2023/07/03 03:53:37;;;;;;;3.70;1.63;;;18.30;66.80;;;;;;5020728;28;20083;-85
2023/07/03 03:56:03;;;;;;;4.60;2.40;;;18.30;66.70;;;;;;5040295;28;20385;-85
2023/07/03 03:58:28;;;;;;;13.55;2.78;;;18.30;67.10;;;;;;5016289;28;20072;-85
2023/07/03 04:00:54;;;;;;;7.18;2.35;;;18.30;67.00;;;;;;5024402;28;20112;-84
2023/07/03 04:03:20;;;;;;;6.88;2.58;;;18.30;67.40;;;;;;5020846;28;20033;-85
2023/07/03 04:05:46;;;;;;;6.95;2.03;;;18.30;67.50;;;;;;5004281;28;20064;-85
2023/07/03 04:08:12;;;;;;;8.13;1.90;;;18.30;67.60;;;;;;5011335;28;20040;-85
2023/07/03 04:10:38;;;;;;;5.43;1.70;;;18.30;67.50;;;;;;5015766;28;20089;-85
2023/07/03 04:13:03;;;;;;;6.93;1.70;;;18.30;67.50;;;;;;5010188;28;20072;-85
2023/07/03 04:15:33;;;;;;;5.03;2.10;;;18.30;69.00;;;;;;5019974;28;20038;-85
2023/07/03 04:17:59;;;;;;;5.13;2.45;;;18.30;68.40;;;;;;5016690;28;20109;-85
2023/07/03 04:20:26;;;;;;;3.70;1.60;;;18.30;68.30;;;;;;5023097;28;20486;-85
2023/07/03 04:22:52;;;;;;;7.53;2.42;;;18.30;68.30;;;;;;5037903;28;20352;-85
2023/07/03 04:25:18;;;;;;;5.00;1.80;;;18.30;68.50;;;;;;5023900;28;20034;-84
2023/07/03 04:27:43;;;;;;;7.38;2.42;;;18.30;68.90;;;;;;4998508;28;20032;-88
2023/07/03 04:30:10;;;;;;;2.08;1.55;;;18.20;69.10;;;;;;5002455;28;20053;-83
2023/07/03 04:32:36;;;;;;;3.90;1.95;;;18.20;68.90;;;;;;5018106;28;20488;-83
2023/07/03 04:35:03;;;;;;;4.90;2.10;;;18.30;68.80;;;;;;5017835;28;20250;-83
2023/07/03 04:37:29;;;;;;;8.68;2.53;;;18.30;68.90;;;;;;5020963;28;20428;-87
2023/07/03 04:39:56;;;;;;;4.63;1.83;;;18.20;69.20;;;;;;5002806;28;20432;-83
2023/07/03 04:42:22;;;;;;;7.07;2.38;;;18.20;69.10;;;;;;5036205;28;20022;-83
2023/07/03 04:44:48;;;;;;;7.38;1.80;;;18.30;69.00;;;;;;5005264;28;20430;-83
2023/07/03 04:47:18;;;;;;;5.68;2.08;;;18.30;69.10;;;;;;5037076;28;20025;-83
2023/07/03 04:49:45;;;;;;;4.80;1.67;;;18.30;69.20;;;;;;5037051;28;20033;-87
2023/07/03 04:52:13;;;;;;;3.63;1.98;;;18.30;69.20;;;;;;5020154;28;20054;-88
2023/07/03 04:54:39;;;;;;;9.00;2.42;;;18.30;69.00;;;;;;5028382;28;20033;-87
2023/07/03 04:57:05;;;;;;;11.13;2.22;;;18.30;69.20;;;;;;5022198;28;20068;-88
2023/07/03 04:59:30;;;;;;;5.75;2.28;;;18.20;69.20;;;;;;5027699;28;20033;-88
2023/07/03 05:01:56;;;;;;;5.75;2.10;;;18.20;69.40;;;;;;5019476;28;20023;-87
2023/07/03 05:04:22;;;;;;;11.20;2.78;;;18.20;69.40;;;;;;5010591;28;20018;-87
2023/07/03 05:06:48;;;;;;;2.88;2.00;;;18.20;69.40;;;;;;5010833;28;20042;-87
2023/07/03 05:09:14;;;;;;;5.20;2.00;;;18.20;69.40;;;;;;5008043;28;20034;-88
2023/07/03 05:11:40;;;;;;;8.73;1.92;;;18.20;69.40;;;;;;5035502;28;20057;-88
2023/07/03 05:14:06;;;;;;;7.95;2.05;;;18.10;69.60;;;;;;5013876;28;20044;-88
2023/07/03 05:16:31;;;;;;;5.03;1.55;;;18.10;69.90;;;;;;5027204;28;20444;-88
2023/07/03 05:18:57;;;;;;;3.78;1.45;;;18.10;70.00;;;;;;5016707;28;20124;-86
2023/07/03 05:21:23;;;;;;;3.80;1.80;;;18.10;69.70;;;;;;5033579;28;20026;-87
2023/07/03 05:23:48;;;;;;;8.60;2.15;;;18.20;69.70;;;;;;5029135;28;20461;-88
2023/07/03 05:26:14;;;;;;;7.55;3.40;;;18.20;69.60;;;;;;5016295;28;20030;-88
2023/07/03 05:28:40;;;;;;;4.25;1.70;;;18.20;69.90;;;;;;5014513;28;20036;-87
2023/07/03 05:31:05;;;;;;;6.40;2.70;;;18.10;70.00;;;;;;5012359;28;20063;-87
2023/07/03 05:33:31;;;;;;;6.20;2.25;;;18.10;70.10;;;;;;5021715;28;20034;-87
2023/07/03 05:36:00;;;;;;;7.38;2.28;;;18.10;70.30;;;;;;5032780;28;20033;-87
2023/07/03 05:38:27;;;;;;;13.50;3.00;;;18.20;70.20;;;;;;5045847;28;20032;-88
2023/07/03 05:40:54;;;;;;;5.63;1.88;;;18.20;70.00;;;;;;5019346;28;20140;-88
2023/07/03 05:43:20;;;;;;;1.75;1.17;;;18.30;70.00;;;;;;5023019;28;20061;-88
2023/07/03 05:45:48;;;;;;;4.03;1.73;;;18.30;70.50;;;;;;5027157;28;20026;-88
2023/07/03 05:48:14;;;;;;;8.15;1.95;;;18.30;69.80;;;;;;5008985;28;20033;-88
2023/07/03 05:50:40;;;;;;;3.33;1.58;;;18.40;69.70;;;;;;5029344;28;20025;-88
2023/07/03 05:53:05;;;;;;;4.93;1.10;;;18.50;69.50;;;;;;5009432;28;20037;-84
2023/07/03 05:55:31;;;;;;;7.07;2.13;;;18.60;69.30;;;;;;5021759;28;20029;-83
2023/07/03 05:57:57;;;;;;;4.00;1.92;;;18.70;69.30;;;;;;5026041;28;20434;-84
2023/07/03 06:00:23;;;;;;;6.30;2.60;;;18.60;69.30;;;;;;5010294;28;20038;-83
2023/07/03 06:02:53;;;;;;;6.78;2.58;;;18.60;69.40;;;;;;5026875;28;20022;-84
2023/07/03 06:05:20;;;;;;;5.72;1.98;;;18.60;69.50;;;;;;5003433;28;20045;-84
2023/07/03 06:07:46;;;;;;;8.82;2.55;;;18.60;69.60;;;;;;5010895;28;20018;-87
2023/07/03 06:10:12;;;;;;;9.60;2.00;;;18.60;69.50;;;;;;5009901;28;20388;-88
2023/07/03 06:12:39;;;;;;;12.13;3.42;;;18.60;69.60;;;;;;5023206;28;20445;-87
2023/07/03 06:15:05;;;;;;;7.05;2.05;;;18.60;69.60;;;;;;5033483;28;20179;-83
2023/07/03 06:17:31;;;;;;;4.45;1.60;;;18.70;69.60;;;;;;5008071;28;20069;-84
2023/07/03 06:19:57;;;;;;;8.32;2.53;;;18.80;69.30;;;;;;5035016;28;20539;-83
2023/07/03 06:22:23;;;;;;;8.55;2.92;;;18.80;69.00;;;;;;5043189;28;20029;-88
2023/07/03 06:24:49;;;;;;;9.05;2.45;;;18.80;69.00;;;;;;5037906;28;20079;-84
2023/07/03 06:27:16;;;;;;;6.65;1.75;;;18.80;69.10;;;;;;5012386;28;20465;-88
2023/07/03 06:29:43;;;;;;;5.07;1.63;;;18.80;69.10;;;;;;5038790;28;20036;-88
2023/07/03 06:32:09;;;;;;;7.28;1.88;;;18.80;69.00;;;;;;5018986;28;20029;-84
2023/07/03 06:34:35;;;;;;;6.13;1.42;;;18.80;69.00;;;;;;5033694;28;20033;-83
2023/07/03 06:37:05;;;;;;;6.25;1.77;;;18.80;68.80;;;;;;5019934;28;20484;-83
2023/07/03 06:39:33;;;;;;;6.75;2.38;;;18.70;68.90;;;;;;5023143;28;20065;-83
2023/07/03 06:41:59;;;;;;;7.88;2.13;;;18.70;69.10;;;;;;5019406;28;20091;-83
2023/07/03 06:44:26;;;;;;;3.38;1.85;;;18.60;69.20;;;;;;5036285;28;20021;-83
2023/07/03 06:46:52;;;;;;;4.07;2.63;;;18.60;69.30;;;;;;5021787;28;20030;-84
2023/07/03 06:49:20;;;;;;;6.38;1.83;;;18.70;69.30;;;;;;5026109;28;20044;-83
2023/07/03 06:51:45;;;;;;;8.57;1.92;;;18.70;69.10;;;;;;5007951;28;20121;-83
2023/07/03 06:54:11;;;;;;;6.25;1.92;;;18.60;69.00;;;;;;5010748;28;20159;-83
2023/07/03 06:56:37;;;;;;;3.25;1.63;;;18.70;69.10;;;;;;5002596;28;20034;-88
2023/07/03 06:59:02;;;;;;;5.13;1.75;;;18.70;69.00;;;;;;5012162;28;20037;-88
2023/07/03 07:01:31;;;;;;;4.47;1.88;;;18.80;68.80;;;;;;5011793;28;20366;-88
2023/07/03 07:03:57;;;;;;;8.45;1.75;;;18.80;68.70;;;;;;5018588;28;20034;-83
2023/07/03 07:06:25;;;;;;;7.75;2.72;;;18.80;68.50;;;;;;5007555;28;20029;-83
2023/07/03 07:08:51;;;;;;;3.90;1.50;;;18.90;68.50;;;;;;5020975;28;20029;-83
2023/07/03 07:11:23;;;;;;;4.28;1.20;;;18.90;68.40;;;;;;5007369;28;20041;-84
2023/07/03 07:13:50;;;;;;;4.38;2.03;;;19.00;68.30;;;;;;5019875;28;20022;-84
2023/07/03 07:16:17;;;;;;;4.15;1.75;;;19.00;67.70;;;;;;4998389;28;20488;-83
2023/07/03 07:18:46;;;;;;;5.95;1.15;;;19.10;67.70;;;;;;5034594;28;20068;-84
2023/07/03 07:21:11;;;;;;;3.15;1.30;;;19.10;67.70;;;;;;5038468;28;20022;-84
2023/07/03 07:23:37;;;;;;;3.17;1.38;;;19.10;67.80;;;;;;5005960;28;20060;-85
2023/07/03 07:26:02;;;;;;;5.13;1.98;;;19.20;67.60;;;;;;5007764;28;20029;-83
2023/07/03 07:28:29;;;;;;;3.38;2.00;;;19.20;67.40;;;;;;5020865;28;20024;-84
2023/07/03 07:30:55;;;;;;;3.85;1.63;;;19.10;67.20;;;;;;5009494;28;20343;-84
2023/07/03 07:33:22;;;;;;;4.32;2.20;;;19.10;67.40;;;;;;5020757;28;20410;-83
2023/07/03 07:35:48;;;;;;;14.77;2.05;;;19.10;67.30;;;;;;5020720;28;21371;-83
2023/07/03 07:38:14;;;;;;;1.90;1.00;;;19.10;67.10;;;;;;5022078;28;20129;-83
2023/07/03 07:40:40;;;;;;;2.53;1.35;;;19.10;67.10;;;;;;5009156;28;20128;-84
2023/07/03 07:43:07;;;;;;;6.88;2.22;;;19.20;67.00;;;;;;5010273;28;20112;-83
2023/07/03 07:45:32;;;;;;;3.42;1.77;;;19.20;66.80;;;;;;5010683;28;20113;-83
2023/07/03 07:47:58;;;;;;;6.35;1.85;;;19.20;66.70;;;;;;5003157;28;20128;-84
2023/07/03 07:50:24;;;;;;;3.17;1.40;;;19.40;66.60;;;;;;5010218;28;20052;-84
2023/07/03 07:52:50;;;;;;;3.30;1.77;;;19.50;66.50;;;;;;5016081;28;20029;-84
2023/07/03 07:55:17;;;;;;;4.32;1.15;;;19.60;66.40;;;;;;5009595;28;20508;-84
2023/07/03 07:57:43;;;;;;;4.30;1.38;;;19.80;66.20;;;;;;5009849;28;20033;-84
2023/07/03 08:00:09;;;;;;;2.58;1.45;;;19.80;66.00;;;;;;5011674;28;20044;-84
2023/07/03 08:02:35;;;;;;;3.95;1.42;;;19.90;65.70;;;;;;5022036;28;20324;-83
2023/07/03 08:05:01;;;;;;;2.50;1.70;;;20.10;65.40;;;;;;5020891;28;20330;-84
2023/07/03 08:07:26;;;;;;;3.42;1.60;;;20.20;65.00;;;;;;5020293;28;20026;-84
2023/07/03 08:09:52;;;;;;;6.43;1.35;;;20.30;64.60;;;;;;5007468;28;20057;-84
2023/07/03 08:12:18;;;;;;;9.75;2.35;;;20.30;64.50;;;;;;5021713;28;20030;-83
2023/07/03 08:14:43;;;;;;;8.43;1.65;;;20.30;64.40;;;;;;5005122;28;20053;-84
2023/07/03 08:17:09;;;;;;;4.07;2.00;;;20.30;64.60;;;;;;5018583;28;20033;-84
2023/07/03 08:19:35;;;;;;;6.05;2.25;;;20.20;64.70;;;;;;4991088;28;20448;-84
2023/07/03 08:22:00;;;;;;;4.30;1.77;;;20.20;64.90;;;;;;5039533;28;20128;-84
2023/07/03 08:24:26;;;;;;;3.47;1.58;;;20.20;65.00;;;;;;5009060;28;20064;-84
2023/07/03 08:26:53;;;;;;;4.03;1.98;;;20.40;65.10;;;;;;4992242;28;20080;-84
2023/07/03 08:29:19;;;;;;;5.55;1.40;;;20.60;64.20;;;;;;5010205;28;20043;-84
2023/07/03 08:31:45;;;;;;;3.95;1.52;;;20.80;63.60;;;;;;5008606;28;20030;-89
2023/07/03 08:34:11;;;;;;;4.15;1.88;;;20.90;63.00;;;;;;5032316;28;20391;-83
2023/07/03 08:36:38;;;;;;;14.23;1.90;;;20.90;62.50;;;;;;4990362;28;20095;-84
2023/07/03 08:39:04;;;;;;;3.45;1.60;;;20.90;62.40;;;;;;4991677;28;20038;-84
2023/07/03 08:41:42;;;;;;;2.35;1.48;;;20.80;61.80;;;;;;5020526;28;20104;-85
2023/07/03 08:44:09;;;;;;;8.15;1.90;;;20.80;61.70;;;;;;5018435;28;20061;-84
2023/07/03 08:46:39;;;;;;;3.78;1.20;;;20.80;61.20;;;;;;5019549;28;20702;-85
2023/07/03 08:49:07;;;;;;;4.57;1.50;;;20.80;61.30;;;;;;5012395;28;20048;-84
2023/07/03 08:51:36;;;;;;;2.00;0.98;;;20.90;60.90;;;;;;5005588;28;20033;-84
2023/07/03 08:54:22;;;;;;;2.25;1.83;;;20.90;60.20;;;;;;5041793;28;20336;-84
2023/07/03 08:56:49;;;;;;;4.78;1.63;;;20.90;59.90;;;;;;5024085;28;20038;-84
2023/07/03 08:59:15;;;;;;;1.85;1.30;;;20.90;60.70;;;;;;5013213;28;20030;-84
2023/07/03 09:01:44;;;;;;;4.03;1.20;;;20.90;60.00;;;;;;5016136;28;20036;-90
2023/07/03 09:04:25;;;;;;;3.42;1.13;;;20.80;59.80;;;;;;5026263;28;20352;-90
2023/07/03 09:07:16;;;;;;;3.13;1.63;;;20.70;59.60;;;;;;5030721;28;20468;-89
2023/07/03 09:09:57;;;;;;;6.97;1.23;;;20.50;59.40;;;;;;5036795;28;20108;-90
2023/07/03 09:12:32;;;;;;;3.45;1.52;;;20.40;59.70;;;;;;5031628;28;20520;-90
2023/07/03 09:15:16;;;;;;;3.13;1.30;;;20.30;58.70;;;;;;5033441;28;20025;-88
2023/07/03 09:17:42;;;;;;;2.20;1.33;;;20.20;57.90;;;;;;5039395;28;20108;-90
2023/07/03 09:20:12;;;;;;;3.22;0.93;;;20.20;57.80;;;;;;5042450;28;20025;-90
2023/07/03 09:22:43;;;;;;;1.13;0.77;;;20.30;57.90;;;;;;5027285;28;20014;-90
2023/07/03 09:25:19;;;;;;;1.15;1.00;;;20.30;58.20;;;;;;5030249;28;20034;-90
2023/07/03 09:27:49;;;;;;;5.80;1.25;;;20.40;58.70;;;;;;5026389;28;20105;-89
2023/07/03 09:30:18;;;;;;;1.58;1.05;;;20.50;58.80;;;;;;5030550;28;20092;-89
2023/07/03 09:32:43;;;;;;;5.20;1.48;;;20.70;58.90;;;;;;5020632;28;20030;-91
2023/07/03 09:35:19;;;;;;;3.55;1.30;;;20.80;58.50;;;;;;5016464;28;20037;-90
2023/07/03 09:37:51;;;;;;;2.95;1.23;;;20.80;58.50;;;;;;5042893;28;20072;-88
2023/07/03 09:40:23;;;;;;;5.95;1.48;;;20.70;58.40;;;;;;5037098;28;20049;-90
2023/07/03 09:42:49;;;;;;;1.98;0.82;;;20.50;58.30;;;;;;5028744;28;20022;-89
2023/07/03 09:45:29;;;;;;;3.70;1.33;;;20.30;58.70;;;;;;5013758;28;20568;-88
2023/07/03 09:47:57;;;;;;;5.63;1.30;;;20.20;58.60;;;;;;5043243;28;20047;-89
2023/07/03 09:50:37;;;;;;;2.40;1.40;;;20.10;58.30;;;;;;5039810;28;20040;-89
2023/07/03 09:53:04;;;;;;;3.40;0.80;;;20.00;58.50;;;;;;5034998;28;20427;-89
2023/07/03 09:55:30;;;;;;;2.83;1.58;;;19.90;58.90;;;;;;5018047;28;20377;-89
2023/07/03 09:57:55;;;;;;;5.28;1.10;;;19.90;59.20;;;;;;5015718;28;20404;-89
2023/07/03 10:00:24;;;;;;;4.75;1.42;;;20.00;59.60;;;;;;5023154;28;20025;-88
2023/07/03 10:02:57;;;;;;;4.70;1.23;;;20.20;59.60;;;;;;5022752;28;20026;-88
2023/07/03 10:05:42;;;;;;;2.97;1.45;;;20.40;59.00;;;;;;5045424;28;20025;-88
2023/07/03 10:08:09;;;;;;;1.27;0.73;;;20.80;58.50;;;;;;5021971;28;20049;-90
2023/07/03 10:10:35;;;;;;;2.88;1.27;;;21.00;58.10;;;;;;5042935;28;20552;-88
2023/07/03 10:13:12;;;;;;;6.35;2.08;;;21.30;58.00;;;;;;5016724;28;20435;-88
2023/07/03 10:15:41;;;;;;;3.90;1.90;;;21.40;57.60;;;;;;5022548;28;20096;-83
2023/07/03 10:18:31;;;;;;;3.00;1.48;;;21.30;57.00;;;;;;5041260;28;20026;-89
2023/07/03 10:21:03;;;;;;;5.88;1.67;;;21.10;57.20;;;;;;5036140;28;20034;-84
2023/07/03 10:23:35;;;;;;;2.92;0.95;;;20.90;56.80;;;;;;5042180;28;20460;-84
2023/07/03 10:26:06;;;;;;;3.65;1.33;;;20.70;58.10;;;;;;5039843;28;20134;-83
2023/07/03 10:28:41;;;;;;;4.53;0.93;;;20.50;59.00;;;;;;5027788;28;20427;-89
2023/07/03 10:31:14;;;;;;;4.05;1.17;;;20.40;59.70;;;;;;5040153;28;20026;-88
2023/07/03 10:33:45;;;;;;;5.22;1.38;;;20.20;59.90;;;;;;5029141;28;20033;-87
2023/07/03 10:36:20;;;;;;;2.13;0.90;;;20.10;59.10;;;;;;5041451;28;20477;-89
2023/07/03 10:39:12;;;;;;;1.88;1.20;;;20.10;59.00;;;;;;5024164;28;20037;-88
2023/07/03 10:41:47;;;;;;;3.10;1.17;;;20.30;58.50;;;;;;5024408;28;20034;-83
2023/07/03 10:44:18;;;;;;;5.80;1.35;;;20.40;57.10;;;;;;5036614;28;20025;-83
2023/07/03 10:46:51;;;;;;;1.83;0.57;;;20.40;56.40;;;;;;5034077;28;20538;-83
2023/07/03 10:49:26;;;;;;;2.25;1.05;;;20.40;56.40;;;;;;5042715;28;20108;-88
2023/07/03 10:52:11;;;;;;;2.58;0.93;;;20.50;55.80;;;;;;5037787;28;20564;-87
2023/07/03 10:55:01;;;;;;;0.82;0.60;;;20.50;56.40;;;;;;5023703;28;20435;-90
2023/07/03 10:57:51;;;;;;;2.10;0.88;;;20.50;56.00;;;;;;5025602;28;20029;-88
2023/07/03 11:00:46;;;;;;;3.90;1.27;;;20.40;55.90;;;;;;5050194;28;20415;-89
2023/07/03 11:03:49;;;;;;;3.30;1.40;;;20.40;56.40;;;;;;5026431;28;20112;-89
2023/07/03 11:06:33;;;;;;;2.38;0.80;;;20.30;56.20;;;;;;5028286;28;20029;-89
2023/07/03 11:09:15;;;;;;;4.57;1.00;;;20.40;56.50;;;;;;5029936;28;20045;-87
2023/07/03 11:11:49;;;;;;;2.92;1.17;;;20.40;56.10;;;;;;5020670;28;20052;-88
2023/07/03 11:14:41;;;;;;;0.93;0.82;;;20.40;56.20;;;;;;5019282;28;20555;-89
2023/07/03 11:17:16;;;;;;;1.88;1.15;;;20.40;54.90;;;;;;5029121;28;20022;-89
2023/07/03 11:19:54;;;;;;;1.45;0.70;;;20.40;55.00;;;;;;5018315;28;20029;-88
2023/07/03 11:22:33;;;;;;;3.15;0.82;;;20.40;55.30;;;;;;5028822;28;20050;-89
2023/07/03 11:25:24;;;;;;;1.77;0.77;;;20.30;55.10;;;;;;5040699;28;20041;-83
2023/07/03 11:28:14;;;;;;;2.13;1.40;;;20.30;55.30;;;;;;5038197;28;20488;-83
2023/07/03 11:30:44;;;;;;;2.45;0.90;;;20.30;55.30;;;;;;5026056;28;20037;-88
2023/07/03 11:33:13;;;;;;;1.65;0.82;;;20.30;55.40;;;;;;5016144;28;20030;-88
2023/07/03 11:35:57;;;;;;;5.53;1.92;;;20.40;55.40;;;;;;5032642;28;20095;-89
2023/07/03 11:38:23;;;;;;;4.30;0.93;;;20.40;55.00;;;;;;5042188;28;20037;-83
2023/07/03 11:40:54;;;;;;;2.95;0.95;;;20.40;54.00;;;;;;5025908;28;20034;-83
2023/07/03 11:43:29;;;;;;;1.05;0.65;;;20.50;53.40;;;;;;5015393;28;20030;-83
2023/07/03 11:45:57;;;;;;;1.65;0.80;;;20.60;53.20;;;;;;5019447;28;20836;-83
2023/07/03 11:48:38;;;;;;;0.98;0.55;;;20.80;52.70;;;;;;5015094;28;20440;-83
2023/07/03 11:51:14;;;;;;;3.47;1.25;;;21.10;52.40;;;;;;5020680;28;20033;-84
2023/07/03 11:53:51;;;;;;;2.63;0.65;;;21.70;51.70;;;;;;5022798;28;20013;-84
2023/07/03 11:56:35;;;;;;;1.52;0.73;;;21.80;49.90;;;;;;5036629;28;20407;-83
2023/07/03 11:59:12;;;;;;;1.10;0.80;;;21.80;50.30;;;;;;5043609;28;20029;-83
2023/07/03 12:01:38;;;;;;;4.60;1.38;;;21.80;50.50;;;;;;5023351;28;20048;-84
2023/07/03 12:04:07;;;;;;;10.52;1.50;;;21.80;51.20;;;;;;5019526;28;20033;-84
2023/07/03 12:06:42;;;;;;;2.38;1.00;;;22.00;51.30;;;;;;5021602;28;20026;-84
2023/07/03 12:09:23;;;;;;;1.83;0.63;;;22.00;50.40;;;;;;5019457;28;20510;-83
2023/07/03 12:12:00;;;;;;;5.32;1.30;;;21.90;51.70;;;;;;5014159;28;20075;-83
2023/07/03 12:14:42;;;;;;;2.90;0.93;;;21.70;51.50;;;;;;5020087;28;20120;-83
2023/07/03 12:17:25;;;;;;;3.23;1.73;;;21.40;51.50;;;;;;5014691;28;20423;-84
2023/07/03 12:20:05;;;;;;;1.30;1.00;;;21.10;51.90;;;;;;5037918;28;20029;-84
2023/07/03 12:22:41;;;;;;;2.90;1.08;;;20.90;52.80;;;;;;5036195;28;20033;-84
2023/07/03 12:25:17;;;;;;;3.97;1.40;;;20.70;53.50;;;;;;5038798;28;20518;-84
2023/07/03 12:27:43;;;;;;;5.70;1.40;;;20.70;53.80;;;;;;5036013;28;20184;-89
2023/07/03 12:30:30;;;;;;;2.15;1.17;;;20.80;53.90;;;;;;5023921;28;20511;-84
2023/07/03 12:32:57;;;;;;;0.75;0.60;;;20.90;54.10;;;;;;5038078;28;20029;-84
2023/07/03 12:35:25;;;;;;;5.13;1.90;;;21.20;54.00;;;;;;5008945;28;20441;-84
2023/07/03 12:37:53;;;;;;;1.83;0.70;;;21.70;53.40;;;;;;5041037;28;20048;-84
2023/07/03 12:40:20;;;;;;;1.08;0.70;;;21.90;52.50;;;;;;5018953;28;20033;-84
2023/07/03 12:42:52;;;;;;;1.80;0.65;;;21.80;52.60;;;;;;5024546;28;20591;-84
2023/07/03 12:45:23;;;;;;;1.75;1.25;;;21.80;53.00;;;;;;5035425;28;20018;-83
2023/07/03 12:48:16;;;;;;;1.05;0.50;;;21.90;52.80;;;;;;5036325;28;20038;-84
2023/07/03 12:50:46;;;;;;;1.42;0.93;;;22.00;52.60;;;;;;5035449;28;20477;-84
2023/07/03 12:53:12;;;;;;;1.02;0.45;;;21.90;51.70;;;;;;5030106;28;20034;-84
2023/07/03 12:55:41;;;;;;;1.45;0.43;;;21.80;50.00;;;;;;5020491;28;20033;-84
2023/07/03 12:58:07;;;;;;;6.63;0.80;;;21.80;50.30;;;;;;5020072;28;20060;-84